createdAt,value
2022-10-11T00:01:16.438Z,3.00
2022-10-11T00:04:09.095Z,2.38
2022-10-11T00:07:02.016Z,2.67
2022-10-11T00:09:55.290Z,2.78
2022-10-11T00:12:52.249Z,2.85
2022-10-11T00:15:45.302Z,2.42
2022-10-11T00:18:39.553Z,2.78
2022-10-11T00:21:32.274Z,3.00
2022-10-11T00:24:25.167Z,2.47
2022-10-11T00:27:18.262Z,2.88
2022-10-11T00:30:14.003Z,2.60
2022-10-11T00:33:06.837Z,2.70
2022-10-11T00:36:00.691Z,2.42
2022-10-11T00:38:53.336Z,2.90
2022-10-11T00:41:47.789Z,2.80
2022-10-11T00:44:43.876Z,2.75
2022-10-11T00:47:38.789Z,2.63
2022-10-11T00:50:35.811Z,2.88
2022-10-11T00:53:31.233Z,2.72
2022-10-11T00:56:27.678Z,3.20
2022-10-11T00:59:24.475Z,2.47
2022-10-11T01:02:18.447Z,2.65
2022-10-11T01:05:30.859Z,2.70
2022-10-11T01:08:24.737Z,2.72
2022-10-11T01:11:22.364Z,2.75
2022-10-11T01:14:30.862Z,2.80
2022-10-11T01:17:35.456Z,3.00
2022-10-11T01:20:52.356Z,2.67
2022-10-11T01:24:13.659Z,3.05
2022-10-11T01:27:45.841Z,3.10
2022-10-11T01:30:40.777Z,2.75
2022-10-11T01:33:41.432Z,2.65
2022-10-11T01:36:40.726Z,2.90
2022-10-11T01:39:37.929Z,2.55
2022-10-11T01:42:32.273Z,2.30
2022-10-11T01:45:25.839Z,2.80
2022-10-11T01:48:21.309Z,2.50
2022-10-11T01:51:14.396Z,2.55
2022-10-11T01:54:44.099Z,2.33
2022-10-11T01:58:01.230Z,1.83
2022-10-11T02:00:59.917Z,2.10
2022-10-11T02:04:03.046Z,1.98
2022-10-11T02:07:00.338Z,1.50
2022-10-11T02:09:59.888Z,2.30
2022-10-11T02:13:01.486Z,2.03
2022-10-11T02:15:57.051Z,2.20
2022-10-11T02:18:55.440Z,1.73
2022-10-11T02:21:54.136Z,2.20
2022-10-11T02:24:50.591Z,1.70
2022-10-11T02:27:48.644Z,1.98
2022-10-11T02:30:42.949Z,1.63
2022-10-11T02:33:42.708Z,1.65
2022-10-11T02:36:43.906Z,1.88
2022-10-11T02:39:42.141Z,1.70
2022-10-11T02:42:40.207Z,1.90
2022-10-11T02:45:38.394Z,1.50
2022-10-11T02:48:33.327Z,1.77
2022-10-11T02:51:27.468Z,1.55
2022-10-11T02:54:21.967Z,1.90
2022-10-11T02:57:15.441Z,1.50
2022-10-11T03:00:09.740Z,1.80
2022-10-11T03:03:02.117Z,1.60
2022-10-11T03:05:59.436Z,1.88
2022-10-11T03:08:52.350Z,1.70
2022-10-11T03:11:46.612Z,1.70
2022-10-11T03:14:39.520Z,1.65
2022-10-11T03:17:36.473Z,1.73
2022-10-11T03:20:30.389Z,1.88
2022-10-11T03:23:23.324Z,1.90
2022-10-11T03:26:16.437Z,1.58
2022-10-11T03:29:10.541Z,1.27
2022-10-11T03:32:03.702Z,1.95
2022-10-11T03:34:56.555Z,1.60
2022-10-11T03:37:49.591Z,1.73
2022-10-11T03:40:43.487Z,1.67
2022-10-11T03:43:36.443Z,1.55
2022-10-11T03:46:32.080Z,1.75
2022-10-11T03:49:25.741Z,1.50
2022-10-11T03:52:18.287Z,1.60
2022-10-11T03:55:11.421Z,1.30
2022-10-11T03:58:05.320Z,1.63
2022-10-11T04:00:59.623Z,1.63
2022-10-11T04:03:56.260Z,1.63
2022-10-11T04:06:49.154Z,1.65
2022-10-11T04:09:42.143Z,1.70
2022-10-11T04:12:35.734Z,1.30
2022-10-11T04:15:28.523Z,1.90
2022-10-11T04:18:21.440Z,1.60
2022-10-11T04:21:15.994Z,1.30
2022-10-11T04:24:11.953Z,1.80
2022-10-11T04:27:06.227Z,1.58
2022-10-11T04:29:59.632Z,1.65
2022-10-11T04:32:52.229Z,1.30
2022-10-11T04:35:45.288Z,1.77
2022-10-11T04:38:40.010Z,1.55
2022-10-11T04:41:33.875Z,1.55
2022-10-11T04:44:26.520Z,1.42
2022-10-11T04:47:19.847Z,1.30
2022-10-11T04:50:12.914Z,1.85
2022-10-11T04:53:06.412Z,1.75
2022-10-11T04:56:06.400Z,1.50
2022-10-11T04:58:59.584Z,1.70
2022-10-11T05:01:52.592Z,1.40
2022-10-11T05:04:45.996Z,1.55
2022-10-11T05:07:39.413Z,1.30
2022-10-11T05:10:32.743Z,1.15
2022-10-11T05:13:27.233Z,1.48
2022-10-11T05:16:20.211Z,1.38
2022-10-11T05:19:13.310Z,1.20
2022-10-11T05:22:06.395Z,1.33
2022-10-11T05:24:59.616Z,1.00
2022-10-11T05:27:52.471Z,1.67
2022-10-11T05:30:46.740Z,1.58
2022-10-11T05:33:39.829Z,1.10
2022-10-11T05:36:32.932Z,1.48
2022-10-11T05:39:26.671Z,1.77
2022-10-11T05:42:19.571Z,1.60
2022-10-11T05:45:12.585Z,1.23
2022-10-11T05:48:07.758Z,1.48
2022-10-11T05:51:02.083Z,1.10
2022-10-11T05:53:55.587Z,1.65
2022-10-11T05:56:48.639Z,1.27
2022-10-11T05:59:42.097Z,1.50
2022-10-11T06:02:36.130Z,1.33
2022-10-11T06:05:31.165Z,1.60
2022-10-11T06:08:24.728Z,1.67
2022-10-11T06:11:19.045Z,1.85
2022-10-11T06:14:12.977Z,1.35
2022-10-11T06:17:06.714Z,1.58
2022-10-11T06:19:59.797Z,1.60
2022-10-11T06:22:54.025Z,1.98
2022-10-11T06:25:57.304Z,1.52
2022-10-11T06:28:50.834Z,1.63
2022-10-11T06:31:44.113Z,1.70
2022-10-11T06:34:37.521Z,1.85
2022-10-11T06:37:31.039Z,1.77
2022-10-11T06:40:25.685Z,2.13
2022-10-11T06:43:18.581Z,1.85
2022-10-11T06:46:11.885Z,1.58
2022-10-11T06:49:04.889Z,1.95
2022-10-11T06:51:57.811Z,1.70
2022-10-11T06:54:50.802Z,1.88
2022-10-11T06:57:44.899Z,1.85
2022-10-11T07:00:37.647Z,1.77
2022-10-11T07:03:31.227Z,2.00
2022-10-11T07:06:27.060Z,2.33
2022-10-11T07:09:20.518Z,1.88
2022-10-11T07:12:13.741Z,1.75
2022-10-11T07:15:10.115Z,1.73
2022-10-11T07:18:03.352Z,1.75
2022-10-11T07:20:56.605Z,1.58
2022-10-11T07:23:49.740Z,1.77
2022-10-11T07:26:42.692Z,1.55
2022-10-11T07:29:35.681Z,1.70
2022-10-11T07:32:30.197Z,1.80
2022-10-11T07:35:23.692Z,1.50
2022-10-11T07:38:17.540Z,1.70
2022-10-11T07:41:11.016Z,1.35
2022-10-11T07:44:04.534Z,1.88
2022-10-11T07:46:57.807Z,1.58
2022-10-11T07:49:52.309Z,1.73
2022-10-11T07:52:45.391Z,1.80
2022-10-11T07:55:40.198Z,2.00
2022-10-11T07:58:33.812Z,1.95
2022-10-11T08:01:28.247Z,1.90
2022-10-11T08:04:21.900Z,1.60
2022-10-11T08:07:15.664Z,2.17
2022-10-11T08:10:09.788Z,2.33
2022-10-11T08:13:04.558Z,1.88
2022-10-11T08:15:57.774Z,1.90
2022-10-11T08:18:50.994Z,2.25
2022-10-11T08:21:43.497Z,2.03
2022-10-11T08:24:38.557Z,1.98
2022-10-11T08:27:31.813Z,2.10
2022-10-11T08:30:24.815Z,2.00
2022-10-11T08:33:17.741Z,1.95
2022-10-11T08:36:11.792Z,2.22
2022-10-11T08:39:05.611Z,2.10
2022-10-11T08:42:03.235Z,2.15
2022-10-11T08:45:15.920Z,2.40
2022-10-11T08:48:15.466Z,2.28
2022-10-11T08:51:15.930Z,2.20
2022-10-11T08:54:14.889Z,2.22
2022-10-11T08:57:13.467Z,2.17
2022-10-11T09:00:09.382Z,2.03
2022-10-11T09:03:11.899Z,2.28
2022-10-11T09:06:15.234Z,2.45
2022-10-11T09:09:23.370Z,2.25
2022-10-11T09:12:29.509Z,2.72
2022-10-11T09:15:32.179Z,1.88
2022-10-11T09:18:52.853Z,1.88
2022-10-11T09:21:52.839Z,1.85
2022-10-11T09:24:57.293Z,2.10
2022-10-11T09:28:03.545Z,2.13
2022-10-11T09:30:58.832Z,2.08
2022-10-11T09:33:52.788Z,1.90
2022-10-11T09:36:50.892Z,2.17
2022-10-11T09:39:50.589Z,1.85
2022-10-11T09:42:44.090Z,2.15
2022-10-11T09:45:38.663Z,2.10
2022-10-11T09:48:39.956Z,2.17
2022-10-11T09:51:33.720Z,2.45
2022-10-11T09:54:39.351Z,2.15
2022-10-11T09:57:34.672Z,2.33
2022-10-11T10:00:30.031Z,1.80
2022-10-11T10:03:30.801Z,2.33
2022-10-11T10:06:25.856Z,1.92
2022-10-11T10:09:28.642Z,2.80
2022-10-11T10:12:23.577Z,1.80
2022-10-11T10:15:20.821Z,1.90
2022-10-11T10:18:22.293Z,2.00
2022-10-11T10:21:17.402Z,2.38
2022-10-11T10:24:21.840Z,2.50
2022-10-11T10:27:21.910Z,2.00
2022-10-11T10:30:19.912Z,2.25
2022-10-11T10:33:12.983Z,1.95
2022-10-11T10:36:15.148Z,1.80
2022-10-11T10:39:14.850Z,2.10
2022-10-11T10:42:14.573Z,1.80
2022-10-11T10:45:20.829Z,1.77
2022-10-11T10:48:25.926Z,1.70
2022-10-11T10:51:27.830Z,2.10
2022-10-11T10:54:35.633Z,2.00
2022-10-11T10:57:35.880Z,2.13
2022-10-11T11:00:35.132Z,1.67
2022-10-11T11:03:34.799Z,2.08
2022-10-11T11:06:35.633Z,1.80
2022-10-11T11:09:47.371Z,2.10
2022-10-11T11:12:46.937Z,2.10
2022-10-11T11:15:44.464Z,2.20
2022-10-11T11:18:43.148Z,2.20
2022-10-11T11:21:44.382Z,1.88
2022-10-11T11:24:47.717Z,1.63
2022-10-11T11:27:53.835Z,1.80
2022-10-11T11:30:56.948Z,1.75
2022-10-11T11:34:00.103Z,1.83
2022-10-11T11:36:57.159Z,2.05
2022-10-11T11:39:53.512Z,1.60
2022-10-11T11:42:50.141Z,1.67
2022-10-11T11:45:48.725Z,2.22
2022-10-11T11:48:44.104Z,1.95
2022-10-11T11:51:42.520Z,1.95
2022-10-11T11:54:48.404Z,2.00
2022-10-11T11:57:55.247Z,1.88
2022-10-11T12:01:14.209Z,1.90
2022-10-11T12:04:13.891Z,2.20
2022-10-11T12:07:17.764Z,2.10
2022-10-11T12:10:26.294Z,1.25
2022-10-11T12:13:31.201Z,1.80
2022-10-11T12:16:27.027Z,1.67
2022-10-11T12:19:21.631Z,1.48
2022-10-11T12:22:36.624Z,1.92
2022-10-11T12:25:41.903Z,2.03
2022-10-11T12:29:07.509Z,1.60
2022-10-11T12:32:30.901Z,1.80
2022-10-11T12:35:56.287Z,1.55
2022-10-11T12:39:31.067Z,1.70
2022-10-11T12:42:27.618Z,1.35
2022-10-11T12:45:44.154Z,1.90
2022-10-11T12:48:48.083Z,1.85
2022-10-11T12:51:51.777Z,1.73
2022-10-11T12:55:04.550Z,1.55
2022-10-11T12:58:25.405Z,1.50
2022-10-11T13:01:23.423Z,1.65
2022-10-11T13:04:21.596Z,1.48
2022-10-11T13:07:23.325Z,1.30
2022-10-11T13:10:20.586Z,1.75
2022-10-11T13:13:21.337Z,1.40
2022-10-11T13:16:19.658Z,1.48
2022-10-11T13:19:15.966Z,1.67
2022-10-11T13:22:18.118Z,1.15
2022-10-11T13:25:17.166Z,1.20
2022-10-11T13:28:10.591Z,1.33
2022-10-11T13:31:05.586Z,1.40
2022-10-11T13:34:00.101Z,1.15
2022-10-11T13:36:58.177Z,1.27
2022-10-11T13:39:53.183Z,1.70
2022-10-11T13:42:48.348Z,1.45
2022-10-11T13:45:42.646Z,1.58
2022-10-11T13:48:40.975Z,1.08
2022-10-11T13:51:37.196Z,1.25
2022-10-11T13:55:00.199Z,1.80
2022-10-11T13:57:53.949Z,1.08
2022-10-11T14:00:55.943Z,1.25
2022-10-11T14:03:54.499Z,1.45
2022-10-11T14:06:49.784Z,1.23
2022-10-11T14:09:48.726Z,1.30
2022-10-11T14:12:44.357Z,1.50
2022-10-11T14:15:39.042Z,1.30
2022-10-11T14:18:45.288Z,1.60
2022-10-11T14:21:52.383Z,1.33
2022-10-11T14:24:48.801Z,1.38
2022-10-11T14:27:43.465Z,1.40
2022-10-11T14:30:37.030Z,1.50
2022-10-11T14:33:30.072Z,1.25
2022-10-11T14:36:23.678Z,1.42
2022-10-11T14:39:19.480Z,1.20
2022-10-11T14:42:13.160Z,1.58
2022-10-11T14:45:08.015Z,1.40
2022-10-11T14:48:00.983Z,2.00
2022-10-11T14:50:57.394Z,1.80
2022-10-11T14:53:51.340Z,1.60
2022-10-11T14:56:44.208Z,1.38
2022-10-11T14:59:38.224Z,1.65
2022-10-11T15:02:32.165Z,1.45
2022-10-11T15:05:32.631Z,1.85
2022-10-11T15:08:26.830Z,1.77
2022-10-11T15:11:21.931Z,1.20
2022-10-11T15:14:15.557Z,1.55
2022-10-11T15:17:11.579Z,1.88
2022-10-11T15:20:25.013Z,1.67
2022-10-11T15:23:18.153Z,1.65
2022-10-11T15:26:14.346Z,1.63
2022-10-11T15:29:09.437Z,1.70
2022-10-11T15:32:02.960Z,1.73
2022-10-11T15:34:56.166Z,2.10
2022-10-11T15:37:53.526Z,1.52
2022-10-11T15:40:48.275Z,1.77
2022-10-11T15:43:41.198Z,1.33
2022-10-11T15:46:33.908Z,1.67
2022-10-11T15:49:27.133Z,1.55
2022-10-11T15:52:19.913Z,1.50
2022-10-11T15:55:14.155Z,1.83
2022-10-11T15:58:07.179Z,1.60
2022-10-11T16:01:05.258Z,1.65
2022-10-11T16:03:58.846Z,1.52
2022-10-11T16:06:52.214Z,1.42
2022-10-11T16:09:44.952Z,1.13
2022-10-11T16:12:39.529Z,1.50
2022-10-11T16:15:33.034Z,1.30
2022-10-11T16:18:25.705Z,1.65
2022-10-11T16:21:20.770Z,1.88
2022-10-11T16:24:13.996Z,1.60
2022-10-11T16:27:07.425Z,1.85
2022-10-11T16:30:02.955Z,2.05
2022-10-11T16:32:56.107Z,2.08
2022-10-11T16:35:49.135Z,2.05
2022-10-11T16:38:42.263Z,1.67
2022-10-11T16:41:35.241Z,1.83
2022-10-11T16:44:28.166Z,1.85
2022-10-11T16:47:22.376Z,1.88
2022-10-11T16:50:15.301Z,1.95
2022-10-11T16:53:08.038Z,2.38
2022-10-11T16:56:01.006Z,2.10
2022-10-11T16:58:55.095Z,2.20
2022-10-11T17:01:48.173Z,2.35
2022-10-11T17:04:42.356Z,1.80
2022-10-11T17:07:35.088Z,2.00
2022-10-11T17:10:39.164Z,1.83
2022-10-11T17:13:31.999Z,1.75
2022-10-11T17:16:25.364Z,1.70
2022-10-11T17:19:18.037Z,1.95
2022-10-11T17:22:14.147Z,1.83
2022-10-11T17:25:08.061Z,2.38
2022-10-11T17:28:01.327Z,2.00
2022-10-11T17:30:55.747Z,2.13
2022-10-11T17:33:49.153Z,1.45
2022-10-11T17:36:42.409Z,2.05
2022-10-11T17:39:36.200Z,1.95
2022-10-11T17:42:29.103Z,1.50
2022-10-11T17:45:22.189Z,1.80
2022-10-11T17:48:15.111Z,1.83
2022-10-11T17:51:09.623Z,1.58
2022-10-11T17:54:04.157Z,2.20
2022-10-11T17:56:58.449Z,2.30
2022-10-11T17:59:51.452Z,1.67
2022-10-11T18:02:45.341Z,2.03
2022-10-11T18:05:40.509Z,2.75
2022-10-11T18:08:40.033Z,2.05
2022-10-11T18:11:33.586Z,2.00
2022-10-11T18:14:28.433Z,2.47
2022-10-11T18:17:20.889Z,2.50
2022-10-11T18:20:14.325Z,2.17
2022-10-11T18:23:07.348Z,2.33
2022-10-11T18:26:00.998Z,2.10
2022-10-11T18:28:56.086Z,2.28
2022-10-11T18:31:50.557Z,2.42
2022-10-11T18:34:44.112Z,2.75
2022-10-11T18:37:37.846Z,2.50
2022-10-11T18:40:31.478Z,2.40
2022-10-11T18:43:24.136Z,2.60
2022-10-11T18:46:17.034Z,2.35
2022-10-11T18:49:11.554Z,2.58
2022-10-11T18:52:05.432Z,2.80
2022-10-11T18:54:58.446Z,2.58
2022-10-11T18:57:51.045Z,2.22
2022-10-11T19:00:44.200Z,2.80
2022-10-11T19:03:37.662Z,2.30
2022-10-11T19:06:35.296Z,2.72
2022-10-11T19:09:28.815Z,2.60
2022-10-11T19:12:22.435Z,2.67
2022-10-11T19:15:16.640Z,2.42
2022-10-11T19:18:13.411Z,2.53
2022-10-11T19:21:09.995Z,2.78
2022-10-11T19:24:05.137Z,1.92
2022-10-11T19:27:02.639Z,2.35
2022-10-11T19:29:55.926Z,2.20
2022-10-11T19:32:48.900Z,3.05
2022-10-11T19:35:43.456Z,2.42
2022-10-11T19:38:36.751Z,2.20
2022-10-11T19:41:31.455Z,2.22
2022-10-11T19:44:24.330Z,2.28
2022-10-11T19:47:17.228Z,2.35
2022-10-11T19:50:10.966Z,2.50
2022-10-11T19:53:04.286Z,2.42
2022-10-11T19:56:00.056Z,2.25
2022-10-11T19:58:54.701Z,2.15
2022-10-11T20:01:52.655Z,2.47
2022-10-11T20:04:53.517Z,3.08
2022-10-11T20:07:46.363Z,2.42
2022-10-11T20:10:39.267Z,2.58
2022-10-11T20:13:34.855Z,2.38
2022-10-11T20:16:29.959Z,2.50
2022-10-11T20:19:27.910Z,2.15
2022-10-11T20:22:23.023Z,2.50
2022-10-11T20:25:16.708Z,2.58
2022-10-11T20:28:10.419Z,2.60
2022-10-11T20:31:04.479Z,2.58
2022-10-11T20:34:01.194Z,2.63
2022-10-11T20:36:54.422Z,2.78
2022-10-11T20:39:47.248Z,2.85
2022-10-11T20:42:39.992Z,2.90
2022-10-11T20:45:33.241Z,2.30
2022-10-11T20:48:26.134Z,2.58
2022-10-11T20:51:21.705Z,2.17
2022-10-11T20:54:15.800Z,2.60
2022-10-11T20:57:09.292Z,2.38
2022-10-11T21:00:02.760Z,2.55
2022-10-11T21:02:56.140Z,2.55
2022-10-11T21:05:49.398Z,2.30
2022-10-11T21:08:43.497Z,2.13
2022-10-11T21:11:36.187Z,2.13
2022-10-11T21:14:29.341Z,2.70
2022-10-11T21:17:22.405Z,2.47
2022-10-11T21:20:15.485Z,1.88
2022-10-11T21:23:09.068Z,2.22
2022-10-11T21:26:05.501Z,2.00
2022-10-11T21:28:59.383Z,2.08
2022-10-11T21:31:52.093Z,2.05
2022-10-11T21:34:45.438Z,2.20
2022-10-11T21:37:38.442Z,1.98
2022-10-11T21:40:31.398Z,2.42
2022-10-11T21:43:25.807Z,1.83
2022-10-11T21:46:21.250Z,2.28
2022-10-11T21:49:14.126Z,1.80
2022-10-11T21:52:07.551Z,2.38
2022-10-11T21:55:00.151Z,1.75
2022-10-11T21:57:53.188Z,2.30
2022-10-11T22:00:49.121Z,1.80
2022-10-11T22:03:42.680Z,2.10
2022-10-11T22:06:35.888Z,1.65
2022-10-11T22:09:29.992Z,2.50
2022-10-11T22:12:23.212Z,1.83
2022-10-11T22:15:16.686Z,2.17
2022-10-11T22:18:10.734Z,2.10
2022-10-11T22:21:06.010Z,2.00
2022-10-11T22:23:59.116Z,2.10
2022-10-11T22:26:52.675Z,2.13
2022-10-11T22:29:45.348Z,1.90
2022-10-11T22:32:38.324Z,2.13
2022-10-11T22:35:37.339Z,2.33
2022-10-11T22:38:31.888Z,2.58
2022-10-11T22:41:25.167Z,2.00
2022-10-11T22:44:18.272Z,2.10
2022-10-11T22:47:11.434Z,2.15
2022-10-11T22:50:05.328Z,1.90
2022-10-11T22:52:59.503Z,2.35
2022-10-11T22:55:52.319Z,1.83
2022-10-11T22:58:45.478Z,2.13
2022-10-11T23:01:38.558Z,2.00
2022-10-11T23:04:31.352Z,2.42
2022-10-11T23:07:24.142Z,2.28
2022-10-11T23:10:19.515Z,2.00
2022-10-11T23:13:12.256Z,1.92
2022-10-11T23:16:09.455Z,1.60
2022-10-11T23:19:02.525Z,1.73
2022-10-11T23:21:55.495Z,2.15
2022-10-11T23:24:48.672Z,2.08
2022-10-11T23:27:42.825Z,1.67
2022-10-11T23:30:36.445Z,2.10
2022-10-11T23:33:30.119Z,2.00
2022-10-11T23:36:25.801Z,2.30
2022-10-11T23:39:19.657Z,1.67
2022-10-11T23:42:12.905Z,1.73
2022-10-11T23:45:09.349Z,1.60
2022-10-11T23:48:02.559Z,2.05
2022-10-11T23:50:55.425Z,1.80
2022-10-11T23:53:48.626Z,2.15
2022-10-11T23:56:41.465Z,1.52
2022-10-11T23:59:34.518Z,2.25
